Time;durP1;ratioP1;P1;durP2;ratioP2;P2;SDS_P1;SDS_P2;PMS_P1;PMS_P2;Temp;Humidity;BMP_temperature;BMP_pressure;BME280_temperature;BME280_humidity;BME280_pressure;Samples;Min_cycle;Max_cycle;Signal;HPM_P1;HPM_P2
2023/04/08 00:00:15;;;;;;;4.93;4.30;;;8.20;99.90;;;;;;5054799;28;20534;-89
2023/04/08 00:02:42;;;;;;;5.85;5.18;;;8.40;99.90;;;;;;5055656;28;20033;-89
2023/04/08 00:05:07;;;;;;;8.30;5.03;;;8.60;99.90;;;;;;5055941;28;20064;-89
2023/04/08 00:07:34;;;;;;;5.47;4.78;;;8.80;99.90;;;;;;5056093;28;20065;-89
2023/04/08 00:09:59;;;;;;;5.78;4.88;;;8.70;99.90;;;;;;5055772;28;20469;-89
2023/04/08 00:12:25;;;;;;;5.63;4.88;;;8.40;99.90;;;;;;5056011;28;20031;-88
2023/04/08 00:14:51;;;;;;;6.13;4.82;;;8.10;99.90;;;;;;5055004;28;20036;-88
2023/04/08 00:17:17;;;;;;;9.70;5.38;;;8.20;99.90;;;;;;5055318;28;20099;-89
2023/04/08 00:19:43;;;;;;;5.57;4.47;;;8.50;99.90;;;;;;5056507;28;20125;-90
2023/04/08 00:22:09;;;;;;;6.97;4.70;;;8.50;99.90;;;;;;5055994;28;20040;-88
2023/04/08 00:24:35;;;;;;;5.80;4.78;;;8.00;99.90;;;;;;5055928;28;20076;-89
2023/04/08 00:27:01;;;;;;;6.63;4.50;;;7.50;99.90;;;;;;5055607;28;20022;-89
2023/04/08 00:29:27;;;;;;;5.80;4.90;;;7.50;99.90;;;;;;5055637;28;20500;-89
2023/04/08 00:31:53;;;;;;;5.55;4.50;;;8.00;99.90;;;;;;5055270;28;20036;-89
2023/04/08 00:34:19;;;;;;;4.85;4.35;;;8.10;99.90;;;;;;5055478;28;20033;-89
2023/04/08 00:36:46;;;;;;;5.32;4.53;;;7.90;99.90;;;;;;5056028;28;20025;-89
2023/04/08 00:39:12;;;;;;;6.40;4.75;;;7.90;99.90;;;;;;5056018;28;20435;-89
2023/04/08 00:41:38;;;;;;;5.53;4.93;;;8.00;99.90;;;;;;5055343;28;20033;-88
2023/04/08 00:44:04;;;;;;;6.70;5.15;;;8.20;99.90;;;;;;5055374;28;20040;-89
2023/04/08 00:46:33;;;;;;;5.18;4.68;;;8.00;99.90;;;;;;5054844;28;20046;-89
2023/04/08 00:49:01;;;;;;;5.10;4.55;;;8.00;99.90;;;;;;5055191;28;20389;-88
2023/04/08 00:51:28;;;;;;;5.93;4.93;;;8.10;99.90;;;;;;5055388;28;20435;-89
2023/04/08 00:53:54;;;;;;;5.50;4.25;;;8.50;99.90;;;;;;5055567;28;20025;-89
2023/04/08 00:56:21;;;;;;;5.25;3.78;;;8.20;99.90;;;;;;5055012;28;20488;-89
2023/04/08 00:58:47;;;;;;;6.22;4.85;;;8.40;99.90;;;;;;5053315;28;20044;-89
2023/04/08 01:01:43;;;;;;;10.80;4.93;;;8.20;99.90;;;;;;5055041;28;20142;-88
2023/04/08 01:04:11;;;;;;;7.65;5.30;;;7.80;99.90;;;;;;5054310;28;20032;-89
2023/04/08 01:06:53;;;;;;;6.05;4.30;;;7.90;99.90;;;;;;5053699;28;20025;-88
2023/04/08 01:09:22;;;;;;;6.30;4.55;;;8.10;99.90;;;;;;5055284;28;20055;-89
2023/04/08 01:11:50;;;;;;;5.20;3.92;;;7.90;99.90;;;;;;5054496;28;20143;-87
2023/04/08 01:14:20;;;;;;;5.25;4.50;;;7.60;99.90;;;;;;5054205;28;20021;-89
2023/04/08 01:16:46;;;;;;;6.40;4.53;;;7.40;99.90;;;;;;5054180;28;20029;-89
2023/04/08 01:19:21;;;;;;;6.75;4.72;;;7.40;99.90;;;;;;5054290;28;20467;-89
2023/04/08 01:21:47;;;;;;;5.10;4.38;;;7.30;99.90;;;;;;5054413;28;20017;-89
2023/04/08 01:24:29;;;;;;;5.75;4.32;;;7.50;99.90;;;;;;5054685;28;20120;-89
2023/04/08 01:26:57;;;;;;;6.13;4.20;;;7.60;99.90;;;;;;5054530;28;20021;-89
2023/04/08 01:29:25;;;;;;;5.55;4.70;;;7.70;99.90;;;;;;5053997;28;20557;-89
2023/04/08 01:31:53;;;;;;;7.63;5.32;;;7.60;99.90;;;;;;5054798;28;20392;-88
2023/04/08 01:34:20;;;;;;;6.05;4.20;;;7.00;99.90;;;;;;5054445;28;20440;-88
2023/04/08 01:36:47;;;;;;;6.40;3.97;;;6.90;99.90;;;;;;5053070;28;20469;-88
2023/04/08 01:39:15;;;;;;;4.88;4.38;;;7.00;99.90;;;;;;5054266;28;20033;-89
2023/04/08 01:41:41;;;;;;;5.78;4.95;;;7.40;99.90;;;;;;5054274;28;20025;-89
2023/04/08 01:44:07;;;;;;;5.57;4.22;;;7.30;99.90;;;;;;5053741;28;20547;-88
2023/04/08 01:46:33;;;;;;;5.25;4.38;;;7.30;99.90;;;;;;5053918;28;20025;-89
2023/04/08 01:49:00;;;;;;;5.40;4.32;;;7.60;99.90;;;;;;5054678;28;20070;-88
2023/04/08 01:51:26;;;;;;;6.25;4.80;;;8.00;99.90;;;;;;5054152;28;20466;-89
2023/04/08 01:53:52;;;;;;;5.20;4.40;;;7.50;99.90;;;;;;5054153;28;20017;-89
2023/04/08 01:56:21;;;;;;;6.13;4.63;;;7.50;99.90;;;;;;5053909;28;20021;-89
2023/04/08 01:58:52;;;;;;;6.03;4.78;;;7.50;99.90;;;;;;5053915;28;20036;-90
2023/04/08 02:01:21;;;;;;;7.70;4.60;;;7.10;99.90;;;;;;5054154;28;20017;-88
2023/04/08 02:03:50;;;;;;;5.25;4.22;;;7.30;99.90;;;;;;5054722;28;20035;-89
2023/04/08 02:06:16;;;;;;;5.20;4.35;;;6.90;99.90;;;;;;5053807;28;20028;-89
2023/04/08 02:08:42;;;;;;;7.32;4.80;;;6.90;99.90;;;;;;5054176;28;20466;-89
2023/04/08 02:11:09;;;;;;;6.75;4.53;;;7.00;99.90;;;;;;5053802;28;20427;-89
2023/04/08 02:13:34;;;;;;;5.30;4.80;;;7.00;99.90;;;;;;5053024;28;20040;-89
2023/04/08 02:16:08;;;;;;;4.93;4.43;;;6.70;99.90;;;;;;5053986;28;20127;-89
2023/04/08 02:18:37;;;;;;;4.88;4.10;;;6.60;99.90;;;;;;5053952;28;20543;-89
2023/04/08 02:21:12;;;;;;;8.55;5.43;;;6.60;99.90;;;;;;5053606;28;20058;-89
2023/04/08 02:23:40;;;;;;;5.93;4.82;;;6.50;99.90;;;;;;5053462;28;20025;-89
2023/04/08 02:26:12;;;;;;;5.78;4.60;;;6.40;99.90;;;;;;5053392;28;20032;-89
2023/04/08 02:28:40;;;;;;;6.05;4.93;;;6.20;99.90;;;;;;5053288;28;20083;-89
2023/04/08 02:31:13;;;;;;;6.05;4.53;;;6.50;99.90;;;;;;5054199;28;20051;-89
2023/04/08 02:33:40;;;;;;;5.10;4.43;;;6.10;99.90;;;;;;5053395;28;20036;-89
2023/04/08 02:36:06;;;;;;;5.43;4.60;;;5.90;99.90;;;;;;5053373;28;20021;-89
2023/04/08 02:38:32;;;;;;;6.78;4.70;;;5.90;99.90;;;;;;5053236;28;20064;-89
2023/04/08 02:40:58;;;;;;;6.18;4.85;;;6.40;99.90;;;;;;5052714;28;20055;-89
2023/04/08 02:43:31;;;;;;;5.60;4.35;;;6.70;99.90;;;;;;5053202;28;20029;-90
2023/04/08 02:45:59;;;;;;;5.57;4.95;;;6.80;99.90;;;;;;5052934;28;20028;-89
2023/04/08 02:48:25;;;;;;;5.93;4.60;;;6.80;99.90;;;;;;5052984;28;20033;-88
2023/04/08 02:50:50;;;;;;;5.40;4.90;;;7.00;99.90;;;;;;5053304;28;20477;-89
2023/04/08 02:53:16;;;;;;;5.30;4.40;;;6.90;99.90;;;;;;5052911;28;20025;-89
2023/04/08 02:55:41;;;;;;;5.95;4.90;;;7.10;99.90;;;;;;5052884;28;20477;-89
2023/04/08 02:58:07;;;;;;;6.13;5.10;;;6.90;99.90;;;;;;5052972;28;20064;-89
2023/04/08 03:00:33;;;;;;;5.93;5.32;;;6.70;99.90;;;;;;5052854;28;20041;-89
2023/04/08 03:02:58;;;;;;;5.85;4.50;;;6.60;99.90;;;;;;5052971;28;20078;-89
2023/04/08 03:05:25;;;;;;;7.45;5.03;;;6.70;99.90;;;;;;5053196;28;20478;-89
2023/04/08 03:07:51;;;;;;;6.70;5.00;;;6.20;99.90;;;;;;5052720;28;20029;-89
2023/04/08 03:10:16;;;;;;;6.75;5.15;;;6.50;99.90;;;;;;5052726;28;20029;-89
2023/04/08 03:12:42;;;;;;;8.30;5.30;;;6.30;99.90;;;;;;5052816;28;20112;-89
2023/04/08 03:15:08;;;;;;;7.00;4.65;;;6.00;99.90;;;;;;5052720;28;20068;-89
2023/04/08 03:17:34;;;;;;;5.45;4.85;;;6.30;99.90;;;;;;5053088;28;20044;-89
2023/04/08 03:20:02;;;;;;;6.97;5.50;;;6.20;99.90;;;;;;5053000;28;20036;-90
2023/04/08 03:22:28;;;;;;;6.93;4.97;;;5.80;99.90;;;;;;5052593;28;20484;-89
2023/04/08 03:24:54;;;;;;;7.55;5.63;;;6.00;99.90;;;;;;5052157;28;20028;-89
2023/04/08 03:27:19;;;;;;;7.15;4.95;;;6.20;99.90;;;;;;5053114;28;20028;-89
2023/04/08 03:29:45;;;;;;;6.05;5.28;;;6.40;99.90;;;;;;5052442;28;20443;-89
2023/04/08 03:32:11;;;;;;;5.70;4.80;;;6.30;99.90;;;;;;5052621;28;20025;-89
2023/04/08 03:34:36;;;;;;;6.97;4.93;;;6.10;99.90;;;;;;5052439;28;20045;-89
2023/04/08 03:37:02;;;;;;;7.72;5.13;;;6.50;99.90;;;;;;5052275;28;20112;-89
2023/04/08 03:39:28;;;;;;;7.38;5.15;;;6.60;99.90;;;;;;5052076;28;20035;-89
2023/04/08 03:41:53;;;;;;;6.45;4.55;;;6.30;99.90;;;;;;5051185;28;20082;-89
2023/04/08 03:44:19;;;;;;;7.43;5.80;;;6.50;99.90;;;;;;5052611;28;20021;-89
2023/04/08 03:46:44;;;;;;;5.68;4.75;;;6.20;99.90;;;;;;5052016;28;20080;-89
2023/04/08 03:49:10;;;;;;;6.00;4.95;;;6.10;99.90;;;;;;5052573;28;20032;-89
2023/04/08 03:51:36;;;;;;;8.13;5.65;;;6.00;99.90;;;;;;5067481;28;20424;-89
2023/04/08 03:54:01;;;;;;;7.28;5.28;;;6.40;99.90;;;;;;5050935;28;20033;-88
2023/04/08 03:56:27;;;;;;;5.40;4.78;;;6.10;99.90;;;;;;5052055;28;20033;-89
2023/04/08 03:58:53;;;;;;;7.57;5.65;;;6.70;99.90;;;;;;5052238;28;20033;-89
2023/04/08 04:01:18;;;;;;;7.60;5.57;;;6.00;99.90;;;;;;5052587;28;20496;-89
2023/04/08 04:03:44;;;;;;;6.70;5.30;;;5.70;99.90;;;;;;5052316;28;20032;-89
2023/04/08 04:06:10;;;;;;;6.85;5.70;;;5.80;99.90;;;;;;5052582;28;20043;-89
2023/04/08 04:08:35;;;;;;;6.72;5.85;;;6.10;99.90;;;;;;5051763;28;20021;-88
2023/04/08 04:11:01;;;;;;;7.63;5.60;;;6.00;99.90;;;;;;5052061;28;20029;-88
2023/04/08 04:13:27;;;;;;;6.18;5.57;;;5.90;99.90;;;;;;5052644;28;20079;-89
2023/04/08 04:15:52;;;;;;;6.65;5.13;;;6.20;99.90;;;;;;5052571;28;20037;-89
2023/04/08 04:18:18;;;;;;;6.03;5.22;;;6.10;99.90;;;;;;5051949;28;20419;-88
2023/04/08 04:20:44;;;;;;;6.32;5.22;;;6.20;99.90;;;;;;5050835;28;20025;-88
2023/04/08 04:23:09;;;;;;;7.00;5.57;;;6.10;99.90;;;;;;5052025;28;20106;-89
2023/04/08 04:25:35;;;;;;;6.60;5.70;;;5.70;99.90;;;;;;5051946;28;20025;-89
2023/04/08 04:28:02;;;;;;;8.00;6.35;;;6.40;99.90;;;;;;5052026;28;20029;-89
2023/04/08 04:30:27;;;;;;;6.55;5.65;;;6.30;99.90;;;;;;5051843;28;20082;-89
2023/04/08 04:32:56;;;;;;;9.65;6.32;;;6.00;99.90;;;;;;5052397;28;20029;-89
2023/04/08 04:35:22;;;;;;;6.18;5.55;;;5.80;99.90;;;;;;5050815;28;20029;-89
2023/04/08 04:37:49;;;;;;;7.13;5.65;;;5.80;99.90;;;;;;5050235;28;20396;-89
2023/04/08 04:40:14;;;;;;;7.78;6.07;;;5.80;99.90;;;;;;5055062;28;20044;-88
2023/04/08 04:42:40;;;;;;;8.40;6.18;;;6.00;99.90;;;;;;5055432;28;20017;-88
2023/04/08 04:45:06;;;;;;;7.25;6.45;;;6.00;99.90;;;;;;5055553;28;20029;-89
2023/04/08 04:47:32;;;;;;;7.20;6.15;;;5.90;99.90;;;;;;5055802;28;20025;-89
2023/04/08 04:49:58;;;;;;;7.93;6.18;;;5.80;99.90;;;;;;5055273;28;20036;-89
2023/04/08 04:52:23;;;;;;;7.10;6.40;;;5.90;99.90;;;;;;5054645;28;20033;-88
2023/04/08 04:54:49;;;;;;;7.72;6.40;;;5.80;99.90;;;;;;5055300;28;20481;-89
2023/04/08 04:57:14;;;;;;;8.05;5.68;;;5.90;99.90;;;;;;5054980;28;20036;-88
2023/04/08 04:59:40;;;;;;;7.00;6.05;;;6.30;99.90;;;;;;5055407;28;20102;-89
2023/04/08 05:02:06;;;;;;;7.15;6.30;;;6.10;99.90;;;;;;5055176;28;20417;-88
2023/04/08 05:04:31;;;;;;;6.85;5.80;;;6.20;99.90;;;;;;5054985;28;20025;-88
2023/04/08 05:06:59;;;;;;;7.97;5.90;;;6.10;99.90;;;;;;5054189;28;20025;-89
2023/04/08 05:09:25;;;;;;;8.23;6.53;;;6.00;99.90;;;;;;5055381;28;20050;-89
2023/04/08 05:11:50;;;;;;;7.50;6.05;;;6.50;99.90;;;;;;5055053;28;20108;-88
2023/04/08 05:14:16;;;;;;;9.10;6.95;;;6.60;99.90;;;;;;5054951;28;20151;-88
2023/04/08 05:16:41;;;;;;;9.25;6.07;;;6.60;99.90;;;;;;5054907;28;20024;-89
2023/04/08 05:19:07;;;;;;;7.80;5.80;;;6.20;99.90;;;;;;5054690;28;20075;-88
2023/04/08 05:21:32;;;;;;;9.10;6.18;;;6.40;99.90;;;;;;5053008;28;20024;-88
2023/04/08 05:23:58;;;;;;;7.35;5.57;;;6.30;99.90;;;;;;5055085;28;20485;-88
2023/04/08 05:26:25;;;;;;;7.40;6.18;;;6.60;99.90;;;;;;5054814;28;20473;-89
2023/04/08 05:28:51;;;;;;;9.10;6.63;;;6.60;99.90;;;;;;5053253;28;20033;-88
2023/04/08 05:31:20;;;;;;;8.07;6.72;;;6.50;99.90;;;;;;5054645;28;20028;-89
2023/04/08 05:33:46;;;;;;;8.20;7.07;;;6.30;99.90;;;;;;5054373;28;20448;-88
2023/04/08 05:36:13;;;;;;;9.65;7.25;;;6.30;99.90;;;;;;5052890;28;20022;-91
2023/04/08 05:38:39;;;;;;;9.98;8.15;;;6.50;99.90;;;;;;5054206;28;20075;-89
2023/04/08 05:41:05;;;;;;;11.35;8.90;;;6.80;99.90;;;;;;5053998;28;20485;-89
2023/04/08 05:43:34;;;;;;;11.48;9.27;;;6.60;99.90;;;;;;5054562;28;20021;-88
2023/04/08 05:45:59;;;;;;;12.63;10.43;;;6.80;99.90;;;;;;5054167;28;20052;-89
2023/04/08 05:48:25;;;;;;;15.07;9.90;;;6.90;99.90;;;;;;5054801;28;20032;-89
2023/04/08 05:50:51;;;;;;;12.88;9.70;;;6.90;99.90;;;;;;5053932;28;20021;-88
2023/04/08 05:53:16;;;;;;;10.65;8.15;;;7.20;99.90;;;;;;5054204;28;20058;-89
2023/04/08 05:55:42;;;;;;;7.95;7.15;;;7.10;99.90;;;;;;5054155;28;20380;-89
2023/04/08 05:58:08;;;;;;;8.18;7.00;;;7.10;99.90;;;;;;5053887;28;20036;-88
2023/04/08 06:00:33;;;;;;;8.25;7.35;;;7.10;99.90;;;;;;5053890;28;20088;-89
2023/04/08 06:02:59;;;;;;;9.65;8.65;;;7.30;99.90;;;;;;5053235;28;20112;-90
2023/04/08 06:05:25;;;;;;;11.85;9.40;;;7.30;99.90;;;;;;5050556;28;20499;-88
2023/04/08 06:07:50;;;;;;;10.95;9.40;;;7.60;99.90;;;;;;5053639;28;20025;-89
2023/04/08 06:10:16;;;;;;;12.65;9.50;;;7.40;99.90;;;;;;5053798;28;20095;-87
2023/04/08 06:12:42;;;;;;;14.80;10.50;;;7.60;99.90;;;;;;5055841;28;20020;-87
2023/04/08 06:15:08;;;;;;;12.13;10.60;;;7.60;99.90;;;;;;5055154;28;20036;-85
2023/04/08 06:17:37;;;;;;;12.13;10.70;;;7.80;99.90;;;;;;5053227;28;20036;-85
2023/04/08 06:20:08;;;;;;;13.20;11.68;;;7.60;99.90;;;;;;5052040;28;20036;-85
2023/04/08 06:22:34;;;;;;;12.60;11.30;;;7.70;99.90;;;;;;5052766;28;20112;-85
2023/04/08 06:25:00;;;;;;;19.05;12.15;;;7.70;99.90;;;;;;5052680;28;20029;-85
2023/04/08 06:27:26;;;;;;;14.80;11.65;;;7.50;99.90;;;;;;5052965;28;20039;-86
2023/04/08 06:29:52;;;;;;;13.88;11.55;;;7.50;99.90;;;;;;5052771;28;20020;-85
2023/04/08 06:32:18;;;;;;;14.90;12.50;;;7.40;99.90;;;;;;5050945;28;20035;-86
2023/04/08 06:34:47;;;;;;;15.82;12.10;;;7.40;99.90;;;;;;5052722;28;20040;-86
2023/04/08 06:37:13;;;;;;;14.88;12.20;;;7.50;99.90;;;;;;5052998;28;20063;-85
2023/04/08 06:39:39;;;;;;;14.05;12.20;;;7.50;99.90;;;;;;5052151;28;20029;-84
2023/04/08 06:42:05;;;;;;;16.65;13.32;;;7.50;99.90;;;;;;5052561;28;20432;-85
2023/04/08 06:44:31;;;;;;;16.85;13.55;;;7.60;99.90;;;;;;5052735;28;20036;-85
2023/04/08 06:46:56;;;;;;;14.60;13.02;;;7.70;99.90;;;;;;5051656;28;20020;-84
2023/04/08 06:49:22;;;;;;;16.70;13.35;;;7.60;99.90;;;;;;5052674;28;20552;-85
2023/04/08 06:51:48;;;;;;;18.52;13.15;;;7.40;99.90;;;;;;5052960;28;20029;-84
2023/04/08 06:54:13;;;;;;;15.15;12.95;;;7.50;99.90;;;;;;5052377;28;20040;-84
2023/04/08 06:56:39;;;;;;;17.45;13.45;;;7.50;99.90;;;;;;5052298;28;20067;-85
2023/04/08 06:59:05;;;;;;;15.68;12.82;;;7.60;99.90;;;;;;5052316;28;20029;-85
2023/04/08 07:01:30;;;;;;;15.80;13.15;;;7.30;99.90;;;;;;5051806;28;20108;-85
2023/04/08 07:03:57;;;;;;;16.33;13.35;;;7.20;99.90;;;;;;5052249;28;20029;-84
2023/04/08 07:06:22;;;;;;;16.15;12.88;;;7.20;99.90;;;;;;5052119;28;20508;-85
2023/04/08 07:08:48;;;;;;;18.35;13.90;;;7.20;99.90;;;;;;5052266;28;20025;-85
2023/04/08 07:11:13;;;;;;;16.80;13.07;;;7.40;99.90;;;;;;5050994;28;20052;-85
2023/04/08 07:13:39;;;;;;;18.70;14.60;;;7.30;99.90;;;;;;5052675;28;20092;-84
2023/04/08 07:16:06;;;;;;;17.65;14.50;;;7.60;99.90;;;;;;5051686;28;20091;-84
2023/04/08 07:18:31;;;;;;;15.13;12.40;;;7.30;99.90;;;;;;5051632;28;20565;-85
2023/04/08 07:20:59;;;;;;;15.05;12.10;;;7.30;99.90;;;;;;5052529;28;20459;-84
2023/04/08 07:23:26;;;;;;;21.73;17.77;;;7.10;99.90;;;;;;5052145;28;20033;-85
2023/04/08 07:25:52;;;;;;;13.13;10.77;;;7.00;99.90;;;;;;5052093;28;20029;-85
2023/04/08 07:28:18;;;;;;;13.23;10.48;;;7.10;99.90;;;;;;5052425;28;20036;-85
2023/04/08 07:30:44;;;;;;;29.70;21.70;;;7.20;99.90;;;;;;5051599;28;20025;-85
2023/04/08 07:33:10;;;;;;;18.55;14.30;;;7.30;99.90;;;;;;5051976;28;20029;-84
2023/04/08 07:35:35;;;;;;;19.35;14.82;;;7.30;99.90;;;;;;5052036;28;20021;-84
2023/04/08 07:38:01;;;;;;;23.08;19.08;;;7.20;99.90;;;;;;5051972;28;20037;-85
2023/04/08 07:40:27;;;;;;;19.38;15.23;;;7.20;99.90;;;;;;5052189;28;20512;-85
2023/04/08 07:42:53;;;;;;;13.82;12.18;;;7.20;99.90;;;;;;5051925;28;20025;-84
2023/04/08 07:45:19;;;;;;;13.15;10.32;;;7.70;99.90;;;;;;5051369;28;20029;-84
2023/04/08 07:47:46;;;;;;;15.10;10.88;;;7.90;99.90;;;;;;5051812;28;20378;-84
2023/04/08 07:50:12;;;;;;;12.88;11.32;;;7.90;99.90;;;;;;5052349;28;20028;-85
2023/04/08 07:52:37;;;;;;;12.38;10.65;;;7.70;99.90;;;;;;5051813;28;20021;-84
2023/04/08 07:55:04;;;;;;;11.55;10.00;;;7.70;99.90;;;;;;5051700;28;20126;-85
2023/04/08 07:57:30;;;;;;;12.05;10.05;;;7.90;99.90;;;;;;5051840;28;20033;-85
2023/04/08 07:59:56;;;;;;;11.60;10.27;;;8.00;99.90;;;;;;5051261;28;20047;-84
2023/04/08 08:02:22;;;;;;;11.95;10.02;;;7.80;99.90;;;;;;5051653;28;20056;-84
2023/04/08 08:04:47;;;;;;;11.40;10.20;;;8.00;99.90;;;;;;5052074;28;20075;-85
2023/04/08 08:07:13;;;;;;;10.48;9.38;;;7.80;99.90;;;;;;5051620;28;20386;-85
2023/04/08 08:09:39;;;;;;;13.50;10.60;;;8.00;99.90;;;;;;5052458;28;20028;-84
2023/04/08 08:12:04;;;;;;;12.73;10.68;;;8.40;99.90;;;;;;5052620;28;20079;-84
2023/04/08 08:14:30;;;;;;;15.15;12.35;;;8.50;99.90;;;;;;5055154;28;20029;-84
2023/04/08 08:16:55;;;;;;;14.65;12.30;;;8.30;99.90;;;;;;5055394;28;20052;-84
2023/04/08 08:19:21;;;;;;;12.82;11.52;;;8.50;99.90;;;;;;5055143;28;20052;-85
2023/04/08 08:21:47;;;;;;;13.60;11.52;;;8.50;99.90;;;;;;5055342;28;20547;-84
2023/04/08 08:24:13;;;;;;;12.82;10.80;;;8.60;99.90;;;;;;5055402;28;20024;-84
2023/04/08 08:26:39;;;;;;;12.77;11.05;;;8.70;99.90;;;;;;5055218;28;20117;-85
2023/04/08 08:29:07;;;;;;;11.77;9.90;;;8.80;99.90;;;;;;5055124;28;20021;-84
2023/04/08 08:31:33;;;;;;;11.10;9.73;;;8.80;99.90;;;;;;5055340;28;20084;-85
2023/04/08 08:33:59;;;;;;;10.35;9.05;;;8.70;99.90;;;;;;5055341;28;20045;-84
2023/04/08 08:36:26;;;;;;;12.60;10.30;;;8.50;99.90;;;;;;5055040;28;20056;-85
2023/04/08 08:38:52;;;;;;;11.18;9.80;;;8.80;99.90;;;;;;5055069;28;20024;-84
2023/04/08 08:41:19;;;;;;;13.55;9.90;;;8.90;99.90;;;;;;5055420;28;20033;-85
2023/04/08 08:43:46;;;;;;;13.73;9.85;;;8.90;99.90;;;;;;5054498;28;20112;-84
2023/04/08 08:46:15;;;;;;;11.80;9.27;;;9.40;99.90;;;;;;5054847;28;20500;-84
2023/04/08 08:48:41;;;;;;;9.68;8.68;;;9.50;99.90;;;;;;5055237;28;20029;-84
2023/04/08 08:51:11;;;;;;;11.00;9.57;;;9.40;99.90;;;;;;5054978;28;20385;-85
2023/04/08 08:53:37;;;;;;;10.32;8.85;;;9.70;99.90;;;;;;5054653;28;20400;-84
2023/04/08 08:56:03;;;;;;;11.55;9.60;;;9.60;99.90;;;;;;5054835;28;20099;-85
2023/04/08 08:58:29;;;;;;;11.65;9.95;;;10.10;99.90;;;;;;5054230;28;20086;-84
2023/04/08 09:00:58;;;;;;;11.23;10.05;;;10.10;99.90;;;;;;5055568;28;20029;-85
2023/04/08 09:03:27;;;;;;;11.10;9.90;;;10.20;99.90;;;;;;5054742;28;20025;-84
2023/04/08 09:06:00;;;;;;;10.52;9.27;;;10.40;99.90;;;;;;5054832;28;20036;-84
2023/04/08 09:08:34;;;;;;;19.52;16.85;;;10.70;99.90;;;;;;5054502;28;20033;-85
2023/04/08 09:11:15;;;;;;;12.18;10.55;;;10.70;99.90;;;;;;5054683;28;20150;-84
2023/04/08 09:13:42;;;;;;;11.20;9.77;;;10.90;99.90;;;;;;5053900;28;20035;-84
2023/04/08 09:16:13;;;;;;;12.07;10.88;;;11.20;99.90;;;;;;5054828;28;20021;-84
2023/04/08 09:18:42;;;;;;;11.25;10.15;;;11.00;99.90;;;;;;5053897;28;20114;-84
2023/04/08 09:21:07;;;;;;;11.77;9.90;;;11.00;99.90;;;;;;5054406;28;20029;-85
2023/04/08 09:23:50;;;;;;;10.90;9.90;;;10.80;99.90;;;;;;5053688;28;20025;-85
2023/04/08 09:26:18;;;;;;;10.80;9.68;;;10.40;99.90;;;;;;5054025;28;20078;-84
2023/04/08 09:29:14;;;;;;;12.32;10.30;;;10.30;99.90;;;;;;5053130;28;20112;-84
2023/04/08 09:31:40;;;;;;;10.80;9.80;;;10.30;99.90;;;;;;5054128;28;20032;-85
2023/04/08 09:34:15;;;;;;;11.10;10.00;;;10.40;99.90;;;;;;5054051;28;20021;-85
2023/04/08 09:36:41;;;;;;;11.30;10.20;;;10.30;99.90;;;;;;5054330;28;20025;-84
2023/04/08 09:39:06;;;;;;;11.68;9.88;;;10.40;99.90;;;;;;5053947;28;20370;-84
2023/04/08 09:41:37;;;;;;;12.80;10.82;;;10.70;99.90;;;;;;5053921;28;20044;-84
2023/04/08 09:44:05;;;;;;;11.32;10.07;;;10.70;99.90;;;;;;5054251;28;20037;-84
2023/04/08 09:46:46;;;;;;;12.27;11.05;;;10.60;99.90;;;;;;5053616;28;20108;-84
2023/04/08 09:49:17;;;;;;;12.77;11.50;;;10.50;99.90;;;;;;5053867;28;20036;-84
2023/04/08 09:52:14;;;;;;;12.13;10.88;;;10.40;99.90;;;;;;5053656;28;20025;-84
2023/04/08 09:55:05;;;;;;;12.60;11.30;;;10.60;99.90;;;;;;5053731;28;20055;-84
2023/04/08 09:57:42;;;;;;;11.80;10.70;;;10.70;99.90;;;;;;5052976;28;20029;-85
2023/04/08 10:00:13;;;;;;;10.57;9.40;;;10.70;99.90;;;;;;5053951;28;20485;-84
2023/04/08 10:03:01;;;;;;;10.05;9.05;;;10.80;99.90;;;;;;5053781;28;20102;-84
2023/04/08 10:05:28;;;;;;;9.68;8.52;;;10.90;99.90;;;;;;5053470;28;20534;-84
2023/04/08 10:07:56;;;;;;;9.88;8.98;;;11.30;99.90;;;;;;5053436;28;20025;-84
2023/04/08 10:10:22;;;;;;;8.75;7.95;;;11.70;99.90;;;;;;5052953;28;20097;-84
2023/04/08 10:12:49;;;;;;;8.98;8.18;;;12.30;99.90;;;;;;5053748;28;20103;-84
2023/04/08 10:15:26;;;;;;;8.82;7.93;;;13.10;99.90;;;;;;5053253;28;20489;-85
2023/04/08 10:18:13;;;;;;;8.93;8.00;;;13.50;99.90;;;;;;5053002;28;20041;-84
2023/04/08 10:20:39;;;;;;;8.85;8.05;;;14.20;99.90;;;;;;5049125;28;20041;-84
2023/04/08 10:23:08;;;;;;;8.23;7.45;;;14.40;99.90;;;;;;5053106;28;20031;-84
2023/04/08 10:25:36;;;;;;;8.63;7.78;;;14.70;99.90;;;;;;5052638;28;20481;-85
2023/04/08 10:28:18;;;;;;;7.70;7.00;;;15.30;99.90;;;;;;5053014;28;20028;-84
2023/04/08 10:30:50;;;;;;;8.77;6.53;;;15.60;99.90;;;;;;5051726;28;20029;-84
2023/04/08 10:33:28;;;;;;;8.52;7.50;;;16.30;99.90;;;;;;5052926;28;20079;-85
2023/04/08 10:36:11;;;;;;;7.95;7.25;;;16.30;99.90;;;;;;5052119;28;20374;-84
2023/04/08 10:38:38;;;;;;;7.57;6.82;;;16.70;99.90;;;;;;5052658;28;20024;-85
2023/04/08 10:41:03;;;;;;;7.00;6.30;;;17.40;99.90;;;;;;5052356;28;20033;-84
2023/04/08 10:43:33;;;;;;;7.10;6.50;;;17.70;99.90;;;;;;5053089;28;20048;-85
2023/04/08 10:46:00;;;;;;;7.53;6.80;;;18.00;99.90;;;;;;5052766;28;20029;-85
2023/04/08 10:48:27;;;;;;;6.25;5.72;;;18.70;99.90;;;;;;5053474;28;20027;-85
2023/04/08 10:51:01;;;;;;;8.10;6.65;;;19.00;99.90;;;;;;5052678;28;20021;-84
2023/04/08 10:53:28;;;;;;;6.95;6.28;;;19.60;99.90;;;;;;5052289;28;20028;-85
2023/04/08 10:56:06;;;;;;;7.15;6.45;;;19.80;99.90;;;;;;5052316;28;20489;-85
2023/04/08 10:58:32;;;;;;;5.68;4.70;;;19.50;99.90;;;;;;5052331;28;20082;-84
2023/04/08 11:01:07;;;;;;;6.05;5.55;;;19.40;99.90;;;;;;5052891;28;20033;-84
2023/04/08 11:03:33;;;;;;;4.95;4.22;;;20.40;99.90;;;;;;5052452;28;20393;-84
2023/04/08 11:06:00;;;;;;;4.95;4.55;;;20.80;99.90;;;;;;5052541;28;20550;-84
2023/04/08 11:08:33;;;;;;;5.95;5.22;;;20.20;99.90;;;;;;5051854;28;20028;-84
2023/04/08 11:11:09;;;;;;;5.47;4.97;;;20.90;99.90;;;;;;5052434;28;20017;-84
2023/04/08 11:13:43;;;;;;;5.82;5.25;;;21.20;99.90;;;;;;5052256;28;20100;-85
2023/04/08 11:16:09;;;;;;;6.00;5.43;;;21.50;99.90;;;;;;5052397;28;20025;-85
2023/04/08 11:18:38;;;;;;;5.65;5.07;;;21.70;99.90;;;;;;5052111;28;20057;-85
2023/04/08 11:21:08;;;;;;;5.57;5.07;;;21.00;99.90;;;;;;5053053;28;20033;-85
2023/04/08 11:23:33;;;;;;;4.65;4.35;;;21.40;99.90;;;;;;5051819;28;20078;-84
2023/04/08 11:25:59;;;;;;;5.47;5.03;;;22.90;99.90;;;;;;5052167;28;20108;-85
2023/04/08 11:28:25;;;;;;;5.55;5.05;;;22.00;99.90;;;;;;5052341;28;20544;-84
2023/04/08 11:30:53;;;;;;;5.10;4.70;;;22.00;99.90;;;;;;5052084;28;20025;-84
2023/04/08 11:33:19;;;;;;;5.40;4.40;;;23.10;99.90;;;;;;5052031;28;20129;-84
2023/04/08 11:35:45;;;;;;;5.22;4.72;;;23.80;99.90;;;;;;5052236;28;20456;-85
2023/04/08 11:38:10;;;;;;;5.35;4.85;;;24.30;99.90;;;;;;5052681;28;20021;-85
2023/04/08 11:40:37;;;;;;;6.25;5.75;;;25.70;99.90;;;;;;5051873;28;20035;-85
2023/04/08 11:43:10;;;;;;;5.18;4.68;;;25.80;99.90;;;;;;5051942;28;20025;-84
2023/04/08 11:45:40;;;;;;;5.07;4.68;;;26.10;99.90;;;;;;5052592;28;20430;-85
2023/04/08 11:48:10;;;;;;;5.20;4.70;;;26.00;99.90;;;;;;5055443;28;20384;-85
2023/04/08 11:50:36;;;;;;;5.80;5.30;;;25.70;99.90;;;;;;5056525;28;20389;-85
2023/04/08 11:53:02;;;;;;;5.05;4.60;;;25.70;99.90;;;;;;5055491;28;20035;-84
2023/04/08 11:55:32;;;;;;;4.75;4.10;;;26.30;99.90;;;;;;5056135;28;20021;-85
2023/04/08 11:58:05;;;;;;;4.70;4.40;;;26.40;99.90;;;;;;5055923;28;20094;-82
2023/04/08 12:00:31;;;;;;;5.22;4.80;;;26.90;99.90;;;;;;5056648;28;20032;-82
2023/04/08 12:02:57;;;;;;;4.80;4.40;;;27.60;99.90;;;;;;5056075;28;20021;-81
2023/04/08 12:05:23;;;;;;;5.32;4.63;;;27.40;99.90;;;;;;5055799;28;20144;-82
2023/04/08 12:07:48;;;;;;;4.50;4.10;;;26.70;99.90;;;;;;5055283;28;20057;-81
2023/04/08 12:10:14;;;;;;;4.10;3.80;;;26.60;99.90;;;;;;5056111;28;20143;-82
2023/04/08 12:12:40;;;;;;;4.00;2.92;;;27.80;99.90;;;;;;5055565;28;20087;-82
2023/04/08 12:15:07;;;;;;;3.08;2.85;;;27.30;99.90;;;;;;5055694;28;20032;-82
2023/04/08 12:17:33;;;;;;;3.10;2.90;;;28.50;99.90;;;;;;5055486;28;20162;-82
2023/04/08 12:19:59;;;;;;;3.17;2.90;;;27.70;99.90;;;;;;5055260;28;20070;-82
2023/04/08 12:22:25;;;;;;;2.80;2.60;;;28.00;99.90;;;;;;5055014;28;20112;-82
2023/04/08 12:24:50;;;;;;;2.63;2.42;;;28.40;99.90;;;;;;5055849;28;20579;-82
2023/04/08 12:27:16;;;;;;;4.15;2.72;;;28.40;99.90;;;;;;5055372;28;20021;-82
2023/04/08 12:29:42;;;;;;;2.83;2.58;;;27.50;99.90;;;;;;5055451;28;20374;-82
2023/04/08 12:32:08;;;;;;;2.63;2.42;;;27.30;99.90;;;;;;5055408;28;20032;-81
2023/04/08 12:34:34;;;;;;;2.60;2.40;;;27.80;99.90;;;;;;5055057;28;20037;-82
2023/04/08 12:36:59;;;;;;;2.92;2.67;;;28.20;99.90;;;;;;5054689;28;20064;-83
2023/04/08 12:39:25;;;;;;;3.10;2.88;;;27.30;99.90;;;;;;5055161;28;20057;-81
2023/04/08 12:41:51;;;;;;;3.20;2.90;;;27.20;99.90;;;;;;5055034;28;20025;-82
2023/04/08 12:44:16;;;;;;;4.53;2.72;;;26.00;99.90;;;;;;5055446;28;20025;-81
2023/04/08 12:46:42;;;;;;;3.08;2.78;;;25.90;99.90;;;;;;5054846;28;20523;-82
2023/04/08 12:49:08;;;;;;;2.53;2.33;;;26.30;99.90;;;;;;5054870;28;20089;-82